sensor_id;sensor_type;location;lat;lon;timestamp;P1;durP1;ratioP1;P2;durP2;ratioP2
41139;SDS011;26881;48.784;9.192;2024-01-27T00:02:46;9.40;;;3.27;;
41139;SDS011;26881;48.784;9.192;2024-01-27T00:08:08;9.40;;;3.00;;
41139;SDS011;26881;48.784;9.192;2024-01-27T00:13:30;9.53;;;3.67;;
41139;SDS011;26881;48.784;9.192;2024-01-27T00:18:52;6.80;;;2.83;;
41139;SDS011;26881;48.784;9.192;2024-01-27T00:24:14;10.73;;;3.30;;
41139;SDS011;26881;48.784;9.192;2024-01-27T00:29:36;7.77;;;3.20;;
41139;SDS011;26881;48.784;9.192;2024-01-27T00:34:58;5.97;;;2.73;;
41139;SDS011;26881;48.784;9.192;2024-01-27T00:40:20;7.03;;;2.67;;
41139;SDS011;26881;48.784;9.192;2024-01-27T00:45:41;10.20;;;2.90;;
41139;SDS011;26881;48.784;9.192;2024-01-27T00:51:03;10.93;;;3.53;;
41139;SDS011;26881;48.784;9.192;2024-01-27T00:56:26;12.50;;;3.30;;
41139;SDS011;26881;48.784;9.192;2024-01-27T01:01:47;7.83;;;3.07;;
41139;SDS011;26881;48.784;9.192;2024-01-27T01:07:09;9.57;;;3.07;;
41139;SDS011;26881;48.784;9.192;2024-01-27T01:12:31;6.77;;;2.97;;
41139;SDS011;26881;48.784;9.192;2024-01-27T01:17:53;10.93;;;3.53;;
41139;SDS011;26881;48.784;9.192;2024-01-27T01:23:15;9.63;;;3.70;;
41139;SDS011;26881;48.784;9.192;2024-01-27T01:28:37;7.07;;;2.90;;
41139;SDS011;26881;48.784;9.192;2024-01-27T01:33:59;11.27;;;3.10;;
41139;SDS011;26881;48.784;9.192;2024-01-27T01:39:21;9.83;;;3.53;;
41139;SDS011;26881;48.784;9.192;2024-01-27T01:44:43;6.33;;;3.07;;
41139;SDS011;26881;48.784;9.192;2024-01-27T01:50:05;4.93;;;2.30;;
41139;SDS011;26881;48.784;9.192;2024-01-27T01:55:27;5.17;;;2.70;;
41139;SDS011;26881;48.784;9.192;2024-01-27T02:00:49;12.00;;;2.63;;
41139;SDS011;26881;48.784;9.192;2024-01-27T02:06:11;12.73;;;2.87;;
41139;SDS011;26881;48.784;9.192;2024-01-27T02:11:33;7.17;;;2.57;;
41139;SDS011;26881;48.784;9.192;2024-01-27T02:16:55;8.37;;;2.57;;
41139;SDS011;26881;48.784;9.192;2024-01-27T02:22:18;10.77;;;2.93;;
41139;SDS011;26881;48.784;9.192;2024-01-27T02:27:40;6.03;;;2.37;;
41139;SDS011;26881;48.784;9.192;2024-01-27T02:33:01;9.30;;;2.50;;
41139;SDS011;26881;48.784;9.192;2024-01-27T02:38:24;8.83;;;2.50;;
41139;SDS011;26881;48.784;9.192;2024-01-27T02:43:46;5.13;;;2.83;;
41139;SDS011;26881;48.784;9.192;2024-01-27T02:49:07;6.80;;;2.13;;
41139;SDS011;26881;48.784;9.192;2024-01-27T02:54:29;12.17;;;2.80;;
41139;SDS011;26881;48.784;9.192;2024-01-27T02:59:51;12.13;;;3.30;;
41139;SDS011;26881;48.784;9.192;2024-01-27T03:05:13;9.57;;;2.60;;
41139;SDS011;26881;48.784;9.192;2024-01-27T03:10:35;8.73;;;2.67;;
41139;SDS011;26881;48.784;9.192;2024-01-27T03:15:57;8.43;;;2.70;;
41139;SDS011;26881;48.784;9.192;2024-01-27T03:21:19;6.63;;;2.20;;
41139;SDS011;26881;48.784;9.192;2024-01-27T03:26:41;8.47;;;2.47;;
41139;SDS011;26881;48.784;9.192;2024-01-27T03:32:03;14.50;;;3.63;;
41139;SDS011;26881;48.784;9.192;2024-01-27T03:37:25;8.93;;;2.70;;
41139;SDS011;26881;48.784;9.192;2024-01-27T03:42:47;10.17;;;2.80;;
41139;SDS011;26881;48.784;9.192;2024-01-27T03:48:09;13.13;;;2.90;;
41139;SDS011;26881;48.784;9.192;2024-01-27T03:53:31;10.57;;;2.90;;
41139;SDS011;26881;48.784;9.192;2024-01-27T03:58:53;11.10;;;2.70;;
41139;SDS011;26881;48.784;9.192;2024-01-27T04:04:16;9.63;;;2.67;;
41139;SDS011;26881;48.784;9.192;2024-01-27T04:09:38;10.40;;;2.90;;
41139;SDS011;26881;48.784;9.192;2024-01-27T04:15:00;7.03;;;2.97;;
41139;SDS011;26881;48.784;9.192;2024-01-27T04:20:22;10.30;;;2.60;;
41139;SDS011;26881;48.784;9.192;2024-01-27T04:25:44;11.13;;;3.10;;
41139;SDS011;26881;48.784;9.192;2024-01-27T04:31:06;10.70;;;2.90;;
41139;SDS011;26881;48.784;9.192;2024-01-27T04:36:28;12.40;;;3.20;;
41139;SDS011;26881;48.784;9.192;2024-01-27T04:41:53;7.20;;;3.10;;
41139;SDS011;26881;48.784;9.192;2024-01-27T04:47:15;11.73;;;2.97;;
41139;SDS011;26881;48.784;9.192;2024-01-27T04:52:37;14.37;;;4.43;;
41139;SDS011;26881;48.784;9.192;2024-01-27T04:57:59;11.63;;;3.83;;
41139;SDS011;26881;48.784;9.192;2024-01-27T05:03:20;8.60;;;3.77;;
41139;SDS011;26881;48.784;9.192;2024-01-27T05:08:43;13.33;;;3.47;;
41139;SDS011;26881;48.784;9.192;2024-01-27T05:14:04;6.50;;;3.33;;
41139;SDS011;26881;48.784;9.192;2024-01-27T05:19:26;9.50;;;3.80;;
41139;SDS011;26881;48.784;9.192;2024-01-27T05:24:48;11.97;;;4.57;;
41139;SDS011;26881;48.784;9.192;2024-01-27T05:30:10;12.33;;;4.30;;
41139;SDS011;26881;48.784;9.192;2024-01-27T05:35:32;11.23;;;3.63;;
41139;SDS011;26881;48.784;9.192;2024-01-27T05:40:54;13.87;;;5.87;;
41139;SDS011;26881;48.784;9.192;2024-01-27T05:46:16;15.20;;;5.00;;
41139;SDS011;26881;48.784;9.192;2024-01-27T05:51:38;14.07;;;5.50;;
41139;SDS011;26881;48.784;9.192;2024-01-27T05:57:00;16.50;;;5.03;;
41139;SDS011;26881;48.784;9.192;2024-01-27T06:02:22;13.60;;;4.00;;
41139;SDS011;26881;48.784;9.192;2024-01-27T06:07:44;13.13;;;3.80;;
41139;SDS011;26881;48.784;9.192;2024-01-27T06:13:07;17.13;;;4.37;;
41139;SDS011;26881;48.784;9.192;2024-01-27T06:18:29;12.30;;;3.33;;
41139;SDS011;26881;48.784;9.192;2024-01-27T06:23:51;12.67;;;3.97;;
41139;SDS011;26881;48.784;9.192;2024-01-27T06:29:13;11.30;;;3.57;;
41139;SDS011;26881;48.784;9.192;2024-01-27T06:34:35;11.27;;;3.97;;
41139;SDS011;26881;48.784;9.192;2024-01-27T06:39:57;10.10;;;3.50;;
41139;SDS011;26881;48.784;9.192;2024-01-27T06:45:19;12.70;;;3.60;;
41139;SDS011;26881;48.784;9.192;2024-01-27T06:50:41;10.80;;;3.43;;
41139;SDS011;26881;48.784;9.192;2024-01-27T06:56:03;11.93;;;3.30;;
41139;SDS011;26881;48.784;9.192;2024-01-27T07:01:25;10.20;;;3.60;;
41139;SDS011;26881;48.784;9.192;2024-01-27T07:06:47;12.13;;;4.03;;
41139;SDS011;26881;48.784;9.192;2024-01-27T07:12:09;9.47;;;3.73;;
41139;SDS011;26881;48.784;9.192;2024-01-27T07:17:31;15.63;;;4.37;;
41139;SDS011;26881;48.784;9.192;2024-01-27T07:22:53;14.43;;;4.87;;
41139;SDS011;26881;48.784;9.192;2024-01-27T07:28:15;12.37;;;4.90;;
41139;SDS011;26881;48.784;9.192;2024-01-27T07:33:40;14.63;;;5.23;;
41139;SDS011;26881;48.784;9.192;2024-01-27T07:39:02;16.17;;;4.97;;
41139;SDS011;26881;48.784;9.192;2024-01-27T07:44:26;11.00;;;4.80;;
41139;SDS011;26881;48.784;9.192;2024-01-27T07:49:48;18.33;;;5.47;;
41139;SDS011;26881;48.784;9.192;2024-01-27T07:55:10;15.60;;;5.07;;
41139;SDS011;26881;48.784;9.192;2024-01-27T08:00:32;15.10;;;7.23;;
41139;SDS011;26881;48.784;9.192;2024-01-27T08:05:54;22.97;;;9.10;;
41139;SDS011;26881;48.784;9.192;2024-01-27T08:11:18;18.37;;;8.33;;
41139;SDS011;26881;48.784;9.192;2024-01-27T08:16:40;17.70;;;7.90;;
41139;SDS011;26881;48.784;9.192;2024-01-27T08:22:01;19.10;;;8.03;;
41139;SDS011;26881;48.784;9.192;2024-01-27T08:27:23;20.27;;;6.60;;
41139;SDS011;26881;48.784;9.192;2024-01-27T08:32:45;17.07;;;6.57;;
41139;SDS011;26881;48.784;9.192;2024-01-27T08:38:07;14.33;;;5.60;;
41139;SDS011;26881;48.784;9.192;2024-01-27T08:43:30;14.23;;;6.17;;
41139;SDS011;26881;48.784;9.192;2024-01-27T08:48:52;13.33;;;6.17;;
41139;SDS011;26881;48.784;9.192;2024-01-27T08:54:14;12.63;;;5.20;;
41139;SDS011;26881;48.784;9.192;2024-01-27T08:59:36;12.43;;;5.83;;
41139;SDS011;26881;48.784;9.192;2024-01-27T09:04:58;15.47;;;5.43;;
41139;SDS011;26881;48.784;9.192;2024-01-27T09:10:20;12.20;;;5.70;;
41139;SDS011;26881;48.784;9.192;2024-01-27T09:15:42;8.30;;;4.90;;
41139;SDS011;26881;48.784;9.192;2024-01-27T09:21:04;14.47;;;5.70;;
41139;SDS011;26881;48.784;9.192;2024-01-27T09:26:26;8.87;;;5.37;;
41139;SDS011;26881;48.784;9.192;2024-01-27T09:31:48;16.47;;;6.27;;
41139;SDS011;26881;48.784;9.192;2024-01-27T09:37:10;13.30;;;5.70;;
41139;SDS011;26881;48.784;9.192;2024-01-27T09:42:32;12.17;;;5.87;;
41139;SDS011;26881;48.784;9.192;2024-01-27T09:47:56;8.63;;;5.17;;
41139;SDS011;26881;48.784;9.192;2024-01-27T09:53:22;11.80;;;4.90;;
41139;SDS011;26881;48.784;9.192;2024-01-27T09:58:44;10.73;;;5.67;;
41139;SDS011;26881;48.784;9.192;2024-01-27T10:04:08;8.63;;;4.68;;
41139;SDS011;26881;48.784;9.192;2024-01-27T10:09:31;7.97;;;3.80;;
41139;SDS011;26881;48.784;9.192;2024-01-27T10:14:52;8.23;;;4.28;;
41139;SDS011;26881;48.784;9.192;2024-01-27T10:20:15;8.10;;;3.95;;
41139;SDS011;26881;48.784;9.192;2024-01-27T10:25:40;6.90;;;4.38;;
41139;SDS011;26881;48.784;9.192;2024-01-27T10:31:10;6.03;;;3.40;;
41139;SDS011;26881;48.784;9.192;2024-01-27T10:36:42;7.97;;;3.75;;
41139;SDS011;26881;48.784;9.192;2024-01-27T10:42:07;10.38;;;3.90;;
41139;SDS011;26881;48.784;9.192;2024-01-27T10:47:32;8.65;;;3.90;;
41139;SDS011;26881;48.784;9.192;2024-01-27T10:52:57;13.68;;;3.75;;
41139;SDS011;26881;48.784;9.192;2024-01-27T10:58:19;8.38;;;3.67;;
41139;SDS011;26881;48.784;9.192;2024-01-27T11:03:44;8.75;;;3.60;;
41139;SDS011;26881;48.784;9.192;2024-01-27T11:09:08;8.75;;;3.83;;
41139;SDS011;26881;48.784;9.192;2024-01-27T11:14:30;8.10;;;3.72;;
41139;SDS011;26881;48.784;9.192;2024-01-27T11:19:52;9.77;;;3.95;;
41139;SDS011;26881;48.784;9.192;2024-01-27T11:25:18;11.07;;;3.78;;
41139;SDS011;26881;48.784;9.192;2024-01-27T11:30:44;13.13;;;3.92;;
41139;SDS011;26881;48.784;9.192;2024-01-27T11:36:08;9.82;;;3.63;;
41139;SDS011;26881;48.784;9.192;2024-01-27T11:41:30;8.45;;;3.47;;
41139;SDS011;26881;48.784;9.192;2024-01-27T11:46:52;9.18;;;3.38;;
41139;SDS011;26881;48.784;9.192;2024-01-27T11:52:15;9.13;;;3.85;;
41139;SDS011;26881;48.784;9.192;2024-01-27T11:57:38;10.73;;;3.33;;
41139;SDS011;26881;48.784;9.192;2024-01-27T12:03:00;8.02;;;3.20;;
41139;SDS011;26881;48.784;9.192;2024-01-27T12:08:22;11.20;;;3.80;;
41139;SDS011;26881;48.784;9.192;2024-01-27T12:13:44;8.95;;;3.50;;
41139;SDS011;26881;48.784;9.192;2024-01-27T12:19:06;8.00;;;4.13;;
41139;SDS011;26881;48.784;9.192;2024-01-27T12:24:31;11.27;;;3.30;;
41139;SDS011;26881;48.784;9.192;2024-01-27T12:29:55;12.15;;;2.97;;
41139;SDS011;26881;48.784;9.192;2024-01-27T12:35:17;9.77;;;3.03;;
41139;SDS011;26881;48.784;9.192;2024-01-27T12:40:39;8.60;;;3.05;;
41139;SDS011;26881;48.784;9.192;2024-01-27T12:46:02;7.93;;;3.08;;
41139;SDS011;26881;48.784;9.192;2024-01-27T12:51:24;9.05;;;3.10;;
41139;SDS011;26881;48.784;9.192;2024-01-27T12:56:46;10.85;;;3.42;;
41139;SDS011;26881;48.784;9.192;2024-01-27T13:02:08;8.55;;;3.17;;
41139;SDS011;26881;48.784;9.192;2024-01-27T13:07:30;10.00;;;3.00;;
41139;SDS011;26881;48.784;9.192;2024-01-27T13:12:51;10.27;;;3.33;;
41139;SDS011;26881;48.784;9.192;2024-01-27T13:18:13;8.32;;;2.72;;
41139;SDS011;26881;48.784;9.192;2024-01-27T13:23:36;7.80;;;3.03;;
41139;SDS011;26881;48.784;9.192;2024-01-27T13:28:57;6.40;;;2.50;;
41139;SDS011;26881;48.784;9.192;2024-01-27T13:34:19;8.25;;;2.53;;
41139;SDS011;26881;48.784;9.192;2024-01-27T13:39:42;6.80;;;2.53;;
41139;SDS011;26881;48.784;9.192;2024-01-27T13:45:04;5.53;;;2.20;;
41139;SDS011;26881;48.784;9.192;2024-01-27T13:50:26;4.88;;;2.30;;
41139;SDS011;26881;48.784;9.192;2024-01-27T13:55:48;8.25;;;2.20;;
41139;SDS011;26881;48.784;9.192;2024-01-27T14:01:10;8.38;;;2.30;;
41139;SDS011;26881;48.784;9.192;2024-01-27T14:06:32;9.57;;;2.45;;
41139;SDS011;26881;48.784;9.192;2024-01-27T14:11:54;8.60;;;2.92;;
41139;SDS011;26881;48.784;9.192;2024-01-27T14:17:17;10.38;;;3.40;;
41139;SDS011;26881;48.784;9.192;2024-01-27T14:22:39;9.25;;;3.53;;
41139;SDS011;26881;48.784;9.192;2024-01-27T14:28:01;8.80;;;4.07;;
41139;SDS011;26881;48.784;9.192;2024-01-27T14:33:23;14.70;;;4.13;;
41139;SDS011;26881;48.784;9.192;2024-01-27T14:38:45;10.60;;;4.03;;
41139;SDS011;26881;48.784;9.192;2024-01-27T14:44:08;12.25;;;4.82;;
41139;SDS011;26881;48.784;9.192;2024-01-27T14:49:30;8.98;;;4.28;;
41139;SDS011;26881;48.784;9.192;2024-01-27T14:54:52;9.75;;;4.45;;
41139;SDS011;26881;48.784;9.192;2024-01-27T15:00:14;20.77;;;6.00;;
41139;SDS011;26881;48.784;9.192;2024-01-27T15:05:36;20.70;;;8.95;;
41139;SDS011;26881;48.784;9.192;2024-01-27T15:11:02;18.17;;;8.45;;
41139;SDS011;26881;48.784;9.192;2024-01-27T15:16:24;20.42;;;6.75;;
41139;SDS011;26881;48.784;9.192;2024-01-27T15:21:47;19.00;;;6.78;;
41139;SDS011;26881;48.784;9.192;2024-01-27T15:27:09;15.65;;;4.63;;
41139;SDS011;26881;48.784;9.192;2024-01-27T15:32:33;13.52;;;5.53;;
41139;SDS011;26881;48.784;9.192;2024-01-27T15:37:55;11.70;;;5.03;;
41139;SDS011;26881;48.784;9.192;2024-01-27T15:43:17;16.93;;;5.33;;
41139;SDS011;26881;48.784;9.192;2024-01-27T15:48:39;14.23;;;5.47;;
41139;SDS011;26881;48.784;9.192;2024-01-27T15:54:01;12.57;;;5.50;;
41139;SDS011;26881;48.784;9.192;2024-01-27T15:59:23;15.90;;;7.03;;
41139;SDS011;26881;48.784;9.192;2024-01-27T16:04:45;15.37;;;7.40;;
41139;SDS011;26881;48.784;9.192;2024-01-27T16:10:07;18.40;;;7.73;;
41139;SDS011;26881;48.784;9.192;2024-01-27T16:15:29;15.93;;;7.47;;
41139;SDS011;26881;48.784;9.192;2024-01-27T16:20:53;13.60;;;5.70;;
41139;SDS011;26881;48.784;9.192;2024-01-27T16:26:15;11.33;;;5.50;;
41139;SDS011;26881;48.784;9.192;2024-01-27T16:31:37;15.57;;;6.10;;
41139;SDS011;26881;48.784;9.192;2024-01-27T16:36:58;13.60;;;5.50;;
41139;SDS011;26881;48.784;9.192;2024-01-27T16:42:20;15.33;;;7.33;;
41139;SDS011;26881;48.784;9.192;2024-01-27T16:47:42;11.90;;;5.63;;
41139;SDS011;26881;48.784;9.192;2024-01-27T16:53:04;11.27;;;5.23;;
41139;SDS011;26881;48.784;9.192;2024-01-27T16:58:26;12.80;;;4.97;;
41139;SDS011;26881;48.784;9.192;2024-01-27T17:03:48;16.97;;;5.90;;
41139;SDS011;26881;48.784;9.192;2024-01-27T17:09:10;16.93;;;5.63;;
41139;SDS011;26881;48.784;9.192;2024-01-27T17:14:38;8.57;;;4.23;;
41139;SDS011;26881;48.784;9.192;2024-01-27T17:20:01;18.03;;;10.67;;
41139;SDS011;26881;48.784;9.192;2024-01-27T17:25:24;16.67;;;10.23;;
41139;SDS011;26881;48.784;9.192;2024-01-27T17:30:46;16.07;;;5.07;;
41139;SDS011;26881;48.784;9.192;2024-01-27T17:36:08;15.20;;;6.70;;
41139;SDS011;26881;48.784;9.192;2024-01-27T17:41:30;19.87;;;10.37;;
41139;SDS011;26881;48.784;9.192;2024-01-27T17:46:52;19.33;;;8.63;;
41139;SDS011;26881;48.784;9.192;2024-01-27T17:52:14;23.57;;;15.57;;
41139;SDS011;26881;48.784;9.192;2024-01-27T17:57:36;21.57;;;10.87;;
41139;SDS011;26881;48.784;9.192;2024-01-27T18:02:59;17.43;;;8.27;;
41139;SDS011;26881;48.784;9.192;2024-01-27T18:08:21;15.30;;;6.77;;
41139;SDS011;26881;48.784;9.192;2024-01-27T18:13:43;14.30;;;6.83;;
41139;SDS011;26881;48.784;9.192;2024-01-27T18:19:08;16.63;;;7.73;;
41139;SDS011;26881;48.784;9.192;2024-01-27T18:24:30;14.70;;;7.40;;
41139;SDS011;26881;48.784;9.192;2024-01-27T18:29:52;18.53;;;8.40;;
41139;SDS011;26881;48.784;9.192;2024-01-27T18:35:14;19.33;;;10.80;;
41139;SDS011;26881;48.784;9.192;2024-01-27T18:40:36;21.97;;;11.17;;
41139;SDS011;26881;48.784;9.192;2024-01-27T18:45:58;21.93;;;10.67;;
41139;SDS011;26881;48.784;9.192;2024-01-27T18:51:22;29.20;;;11.77;;
41139;SDS011;26881;48.784;9.192;2024-01-27T18:56:44;34.10;;;12.50;;
41139;SDS011;26881;48.784;9.192;2024-01-27T19:02:07;31.00;;;13.23;;
41139;SDS011;26881;48.784;9.192;2024-01-27T19:07:31;25.47;;;12.50;;
41139;SDS011;26881;48.784;9.192;2024-01-27T19:12:52;25.67;;;11.47;;
41139;SDS011;26881;48.784;9.192;2024-01-27T19:18:14;23.50;;;11.13;;
41139;SDS011;26881;48.784;9.192;2024-01-27T19:23:36;26.30;;;12.53;;
41139;SDS011;26881;48.784;9.192;2024-01-27T19:28:58;22.33;;;11.10;;
41139;SDS011;26881;48.784;9.192;2024-01-27T19:34:20;22.57;;;11.20;;
41139;SDS011;26881;48.784;9.192;2024-01-27T19:39:42;19.57;;;10.70;;
41139;SDS011;26881;48.784;9.192;2024-01-27T19:45:07;22.40;;;10.53;;
41139;SDS011;26881;48.784;9.192;2024-01-27T19:50:29;21.07;;;9.63;;
41139;SDS011;26881;48.784;9.192;2024-01-27T19:55:51;19.63;;;9.63;;
41139;SDS011;26881;48.784;9.192;2024-01-27T20:01:16;22.50;;;13.03;;
41139;SDS011;26881;48.784;9.192;2024-01-27T20:06:39;21.30;;;13.00;;
41139;SDS011;26881;48.784;9.192;2024-01-27T20:12:00;25.83;;;12.77;;
41139;SDS011;26881;48.784;9.192;2024-01-27T20:17:22;23.97;;;12.37;;
41139;SDS011;26881;48.784;9.192;2024-01-27T20:22:44;25.90;;;10.90;;
41139;SDS011;26881;48.784;9.192;2024-01-27T20:28:06;27.77;;;10.07;;
41139;SDS011;26881;48.784;9.192;2024-01-27T20:33:28;20.50;;;9.77;;
41139;SDS011;26881;48.784;9.192;2024-01-27T20:39:05;18.50;;;9.33;;
41139;SDS011;26881;48.784;9.192;2024-01-27T20:44:28;18.37;;;9.23;;
41139;SDS011;26881;48.784;9.192;2024-01-27T20:49:50;19.53;;;9.13;;
41139;SDS011;26881;48.784;9.192;2024-01-27T20:55:12;16.33;;;8.70;;
41139;SDS011;26881;48.784;9.192;2024-01-27T21:00:34;19.83;;;8.30;;
41139;SDS011;26881;48.784;9.192;2024-01-27T21:05:56;17.30;;;9.40;;
41139;SDS011;26881;48.784;9.192;2024-01-27T21:11:18;17.97;;;9.63;;
41139;SDS011;26881;48.784;9.192;2024-01-27T21:16:41;21.53;;;9.80;;
41139;SDS011;26881;48.784;9.192;2024-01-27T21:22:03;14.67;;;7.23;;
41139;SDS011;26881;48.784;9.192;2024-01-27T21:27:25;12.17;;;6.57;;
41139;SDS011;26881;48.784;9.192;2024-01-27T21:32:47;13.67;;;6.60;;
41139;SDS011;26881;48.784;9.192;2024-01-27T21:38:08;14.97;;;6.80;;
41139;SDS011;26881;48.784;9.192;2024-01-27T21:43:30;12.93;;;6.00;;
41139;SDS011;26881;48.784;9.192;2024-01-27T21:48:52;13.10;;;6.63;;
41139;SDS011;26881;48.784;9.192;2024-01-27T21:54:14;14.30;;;7.73;;
41139;SDS011;26881;48.784;9.192;2024-01-27T21:59:36;13.50;;;6.50;;
41139;SDS011;26881;48.784;9.192;2024-01-27T22:04:58;9.83;;;6.37;;
41139;SDS011;26881;48.784;9.192;2024-01-27T22:10:20;12.00;;;6.47;;
41139;SDS011;26881;48.784;9.192;2024-01-27T22:15:42;13.77;;;6.13;;
41139;SDS011;26881;48.784;9.192;2024-01-27T22:21:04;12.70;;;7.00;;
41139;SDS011;26881;48.784;9.192;2024-01-27T22:26:27;18.93;;;6.50;;
41139;SDS011;26881;48.784;9.192;2024-01-27T22:31:49;17.87;;;7.13;;
41139;SDS011;26881;48.784;9.192;2024-01-27T22:37:12;18.43;;;7.77;;
41139;SDS011;26881;48.784;9.192;2024-01-27T22:42:34;19.03;;;8.27;;
41139;SDS011;26881;48.784;9.192;2024-01-27T22:47:56;14.90;;;7.23;;
41139;SDS011;26881;48.784;9.192;2024-01-27T22:53:18;16.53;;;7.87;;
41139;SDS011;26881;48.784;9.192;2024-01-27T22:58:40;18.70;;;8.17;;
41139;SDS011;26881;48.784;9.192;2024-01-27T23:04:01;19.13;;;9.23;;
41139;SDS011;26881;48.784;9.192;2024-01-27T23:09:23;16.00;;;8.53;;
41139;SDS011;26881;48.784;9.192;2024-01-27T23:14:46;20.23;;;9.27;;
41139;SDS011;26881;48.784;9.192;2024-01-27T23:20:09;17.47;;;9.30;;
41139;SDS011;26881;48.784;9.192;2024-01-27T23:25:31;15.13;;;7.50;;
41139;SDS011;26881;48.784;9.192;2024-01-27T23:30:53;13.20;;;7.87;;
41139;SDS011;26881;48.784;9.192;2024-01-27T23:36:15;18.60;;;7.67;;
41139;SDS011;26881;48.784;9.192;2024-01-27T23:41:37;15.30;;;7.67;;
41139;SDS011;26881;48.784;9.192;2024-01-27T23:47:00;21.40;;;9.00;;
41139;SDS011;26881;48.784;9.192;2024-01-27T23:52:22;16.00;;;9.33;;
41139;SDS011;26881;48.784;9.192;2024-01-27T23:57:47;19.67;;;9.93;;
